| time (UTC) | temp F | wind direction | speed MPH | gust MPH | rain 1hr in | rain 24hr in | rain mn in | humidity % | barometer mb |
| 20260507180004 | 56 | 259 | 0.0 | 1.0 | 0.05 | 0.00 | 0.14 | 95 | 1014.6 |
| 20260507175502 | 56 | 234 | 0.0 | 2.0 | 0.05 | 0.00 | 0.14 | 95 | 1015.0 |
| 20260507175003 | 57 | 193 | 0.0 | 0.0 | 0.03 | 0.00 | 0.12 | 95 | 1014.8 |
| 20260507174505 | 57 | 72 | 1.0 | 1.0 | 0.02 | 0.00 | 0.11 | 94 | 1014.9 |
| 20260507174004 | 57 | 151 | 0.0 | 0.0 | 0.01 | 0.00 | 0.10 | 94 | 1014.7 |
| 20260507173503 | 57 | 157 | 0.0 | 0.0 | 0.00 | 0.00 | 0.09 | 93 | 1014.9 |
| 20260507173004 | 57 | 196 | 0.0 | 1.0 | 0.00 | 0.00 | 0.09 | 93 | 1014.6 |
| 20260507172502 | 57 | 231 | 0.0 | 1.0 | 0.00 | 0.00 | 0.09 | 93 | 1014.6 |
| 20260507172003 | 57 | 206 | 0.0 | 2.0 | 0.00 | 0.00 | 0.09 | 93 | 1014.3 |
| 20260507171503 | 57 | 259 | 1.0 | 2.0 | 0.00 | 0.00 | 0.09 | 93 | 1014.2 |
| 20260507171005 | 57 | 158 | 0.0 | 2.0 | 0.00 | 0.00 | 0.09 | 93 | 1014.3 |
| 20260507170503 | 57 | 126 | 0.0 | 1.0 | 0.00 | 0.00 | 0.09 | 92 | 1014.1 |
| 20260507170004 | 57 | 242 | 0.0 | 0.0 | 0.00 | 0.00 | 0.09 | 92 | 1014.3 |
| 20260507165505 | 57 | 232 | 0.0 | 1.0 | 0.00 | 0.00 | 0.09 | 91 | 1014.3 |
| 20260507165003 | 58 | 223 | 0.0 | 0.0 | 0.00 | 0.00 | 0.09 | 91 | 1014.0 |
| 20260507164502 | 58 | 226 | 0.0 | 1.0 | 0.00 | 0.00 | 0.09 | 91 | 1014.0 |
| 20260507164003 | 58 | 234 | 2.0 | 2.0 | 0.00 | 0.00 | 0.09 | 90 | 1013.9 |
| 20260507163505 | 58 | 225 | 0.0 | 1.0 | 0.00 | 0.00 | 0.09 | 90 | 1014.0 |
| 20260507163003 | 58 | 299 | 1.0 | 2.0 | 0.00 | 0.00 | 0.09 | 91 | 1013.9 |
| 20260507162502 | 58 | 222 | 2.0 | 2.0 | 0.00 | 0.00 | 0.09 | 90 | 1013.7 |
| 20260507162002 | 58 | 269 | 1.0 | 2.0 | 0.00 | 0.00 | 0.09 | 90 | 1013.6 |
| 20260507161505 | 58 | 179 | 0.0 | 1.0 | 0.00 | 0.00 | 0.09 | 90 | 1013.7 |
| 20260507161003 | 58 | 250 | 1.0 | 3.0 | 0.00 | 0.00 | 0.09 | 90 | 1013.6 |
| 20260507160503 | 58 | 265 | 2.0 | 2.0 | 0.00 | 0.00 | 0.09 | 91 | 1014.0 |
| 20260507160003 | 58 | 63 | 1.0 | 1.0 | 0.00 | 0.00 | 0.09 | 92 | 1013.9 |
| 20260507155502 | 58 | 351 | 3.0 | 3.0 | 0.00 | 0.00 | 0.09 | 92 | 1013.9 |
| 20260507155004 | 58 | 292 | 0.0 | 2.0 | 0.00 | 0.00 | 0.09 | 91 | 1013.9 |
| 20260507154503 | 58 | 243 | 0.0 | 3.0 | 0.00 | 0.00 | 0.09 | 91 | 1013.8 |
| 20260507154003 | 59 | 319 | 1.0 | 2.0 | 0.00 | 0.00 | 0.09 | 91 | 1013.7 |
| 20260507153504 | 59 | 261 | 2.0 | 3.0 | 0.00 | 0.00 | 0.09 | 90 | 1013.4 |
| 20260507153003 | 59 | 90 | 0.0 | 2.0 | 0.00 | 0.00 | 0.09 | 89 | 1013.5 |
| 20260507152502 | 59 | 202 | 1.0 | 5.0 | 0.00 | 0.00 | 0.09 | 89 | 1013.6 |
| 20260507152006 | 59 | 300 | 2.0 | 6.0 | 0.00 | 0.00 | 0.09 | 88 | 1013.5 |
| 20260507151504 | 59 | 272 | 1.0 | 3.0 | 0.00 | 0.00 | 0.09 | 88 | 1013.4 |
| 20260507151002 | 59 | 218 | 0.0 | 2.0 | 0.00 | 0.00 | 0.09 | 89 | 1013.3 |
| 20260507150503 | 59 | 260 | 2.0 | 5.0 | 0.01 | 0.00 | 0.09 | 88 | 1013.4 |
| 20260507150003 | 59 | 212 | 2.0 | 6.0 | 0.02 | 0.00 | 0.09 | 88 | 1013.4 |
| 20260507145503 | 59 | 230 | 1.0 | 5.0 | 0.06 | 0.00 | 0.09 | 89 | 1013.3 |
| 20260507145003 | 59 | 208 | 3.0 | 5.0 | 0.09 | 0.00 | 0.09 | 89 | 1013.4 |
| 20260507144503 | 59 | 236 | 1.0 | 5.0 | 0.09 | 0.00 | 0.09 | 89 | 1013.4 |
| 20260507144002 | 59 | 284 | 1.0 | 5.0 | 0.09 | 0.00 | 0.09 | 88 | 1013.2 |
| 20260507143502 | 59 | 255 | 2.0 | 3.0 | 0.09 | 0.00 | 0.09 | 88 | 1013.1 |
| 20260507143004 | 59 | 163 | 3.0 | 5.0 | 0.09 | 0.00 | 0.09 | 88 | 1013.1 |
| 20260507142504 | 59 | 189 | 0.0 | 2.0 | 0.09 | 0.00 | 0.09 | 90 | 1013.0 |
| 20260507142004 | 59 | 186 | 2.0 | 8.0 | 0.09 | 0.00 | 0.09 | 89 | 1013.1 |
| 20260507141506 | 59 | 213 | 3.0 | 5.0 | 0.09 | 0.00 | 0.09 | 90 | 1013.2 |
| 20260507141008 | 59 | 157 | 4.0 | 6.0 | 0.09 | 0.00 | 0.09 | 90 | 1012.9 |
| 20260507140503 | 59 | 187 | 0.0 | 2.0 | 0.08 | 0.00 | 0.08 | 90 | 1013.0 |
| 20260507140003 | 60 | 181 | 2.0 | 6.0 | 0.04 | 0.00 | 0.04 | 87 | 1013.1 |
| 20260507135503 | 63 | 152 | 3.0 | 9.0 | 0.02 | 0.00 | 0.02 | 82 | 1012.9 |
| 20260507135003 | 67 | 216 | 1.0 | 7.0 | 0.00 | 0.00 | 0.00 | 66 | 1012.8 |
| 20260507134504 | 68 | 347 | 0.0 | 2.0 | 0.00 | 0.00 | 0.00 | 63 | 1012.7 |
| 20260507134002 | 68 | 100 | 1.0 | 2.0 | 0.00 | 0.00 | 0.00 | 60 | 1012.6 |
| 20260507133503 | 68 | 141 | 1.0 | 1.0 | 0.00 | 0.00 | 0.00 | 61 | 1012.6 |
| 20260507133002 | 68 | 65 | 1.0 | 5.0 | 0.00 | 0.00 | 0.00 | 61 | 1012.6 |
| 20260507132503 | 69 | 9 | 2.0 | 6.0 | 0.00 | 0.00 | 0.00 | 60 | 1012.5 |
| 20260507132003 | 69 | 27 | 4.0 | 6.0 | 0.00 | 0.00 | 0.00 | 58 | 1012.6 |
| 20260507131503 | 70 | 321 | 1.0 | 7.0 | 0.00 | 0.00 | 0.00 | 56 | 1012.7 |
| 20260507131004 | 70 | 31 | 2.0 | 3.0 | 0.00 | 0.00 | 0.00 | 57 | 1012.6 |
| 20260507130506 | 70 | 342 | 1.0 | 7.0 | 0.00 | 0.00 | 0.00 | 55 | 1012.8 |
| 20260507130004 | 70 | 53 | 2.0 | 6.0 | 0.00 | 0.00 | 0.00 | 54 | 1012.5 |
| 20260507125504 | 71 | 56 | 1.0 | 6.0 | 0.00 | 0.00 | 0.00 | 54 | 1012.8 |
| 20260507125002 | 68 | 23 | 0.0 | 2.0 | 0.00 | 0.00 | 0.00 | 62 | 1013.0 |
| 20260507124504 | 67 | 349 | 1.0 | 3.0 | 0.00 | 0.00 | 0.00 | 67 | 1013.0 |
| 20260507124003 | 66 | 325 | 1.0 | 2.0 | 0.00 | 0.00 | 0.00 | 70 | 1012.9 |
| 20260507123502 | 65 | 352 | 2.0 | 2.0 | 0.00 | 0.00 | 0.00 | 73 | 1012.9 |
| 20260507123003 | 65 | 269 | 2.0 | 5.0 | 0.00 | 0.00 | 0.00 | 74 | 1013.0 |
| 20260507122502 | 66 | 311 | 0.0 | 1.0 | 0.00 | 0.00 | 0.00 | 71 | 1013.1 |
| 20260507122004 | 65 | 331 | 0.0 | 2.0 | 0.00 | 0.00 | 0.00 | 73 | 1013.0 |
| 20260507121503 | 65 | 30 | 1.0 | 2.0 | 0.00 | 0.00 | 0.00 | 73 | 1013.0 |
| 20260507121003 | 66 | 345 | 1.0 | 2.0 | 0.00 | 0.00 | 0.00 | 69 | 1013.0 |
| 20260507120504 | 66 | 4 | 0.0 | 2.0 | 0.00 | 0.00 | 0.00 | 65 | 1012.9 |
| 20260507120004 | 66 | 292 | 0.0 | 2.0 | 0.00 | 0.00 | 0.00 | 67 | 1013.2 |
| 20260507115503 | 67 | 178 | 0.0 | 1.0 | 0.00 | 0.00 | 0.00 | 66 | 1013.4 |
| 20260507115002 | 67 | 248 | 0.0 | 1.0 | 0.00 | 0.00 | 0.00 | 65 | 1013.1 |
| 20260507114503 | 67 | 228 | 0.0 | 1.0 | 0.00 | 0.00 | 0.00 | 64 | 1013.1 |
| 20260507114006 | 69 | 32 | 1.0 | 2.0 | 0.00 | 0.00 | 0.00 | 60 | 1013.0 |
| 20260507113504 | 71 | 232 | 3.0 | 3.0 | 0.00 | 0.00 | 0.00 | 55 | 1012.8 |
| 20260507113004 | 70 | 274 | 1.0 | 1.0 | 0.00 | 0.00 | 0.00 | 55 | 1013.0 |
| 20260507112504 | 69 | 233 | 0.0 | 1.0 | 0.00 | 0.00 | 0.00 | 58 | 1012.9 |
| 20260507112003 | 69 | 234 | 0.0 | 3.0 | 0.00 | 0.00 | 0.00 | 60 | 1012.9 |
| 20260507111506 | 68 | 238 | 1.0 | 1.0 | 0.00 | 0.00 | 0.00 | 59 | 1013.0 |
| 20260507111004 | 68 | 123 | 1.0 | 2.0 | 0.00 | 0.00 | 0.00 | 62 | 1013.2 |
| 20260507110504 | 68 | 68 | 0.0 | 1.0 | 0.00 | 0.00 | 0.00 | 62 | 1013.1 |
| 20260507110003 | 67 | 347 | 0.0 | 1.0 | 0.00 | 0.00 | 0.00 | 62 | 1013.2 |
| 20260507105504 | 67 | 32 | 0.0 | 1.0 | 0.00 | 0.00 | 0.00 | 62 | 1013.0 |
| 20260507105004 | 66 | 26 | 0.0 | 1.0 | 0.00 | 0.00 | 0.00 | 63 | 1013.1 |
| 20260507104504 | 67 | 179 | 1.0 | 3.0 | 0.00 | 0.00 | 0.00 | 66 | 1012.9 |
| 20260507104006 | 66 | 205 | 1.0 | 3.0 | 0.00 | 0.00 | 0.00 | 65 | 1013.1 |
| 20260507103503 | 66 | 105 | 0.0 | 1.0 | 0.00 | 0.00 | 0.00 | 66 | 1012.8 |
| 20260507103004 | 66 | 128 | 2.0 | 3.0 | 0.00 | 0.00 | 0.00 | 67 | 1013.1 |
| 20260507102504 | 66 | 5 | 1.0 | 2.0 | 0.00 | 0.00 | 0.00 | 67 | 1012.8 |
| 20260507102004 | 67 | 202 | 2.0 | 3.0 | 0.00 | 0.00 | 0.00 | 64 | 1013.0 |
| 20260507101502 | 66 | 119 | 0.0 | 1.0 | 0.00 | 0.00 | 0.00 | 67 | 1012.8 |
| 20260507101003 | 66 | 116 | 1.0 | 2.0 | 0.00 | 0.00 | 0.00 | 67 | 1012.8 |
| 20260507100503 | 66 | 55 | 2.0 | 5.0 | 0.00 | 0.00 | 0.00 | 67 | 1012.9 |
| 20260507100004 | 66 | 143 | 1.0 | 3.0 | 0.00 | 0.00 | 0.00 | 67 | 1012.8 |
| 20260507095502 | 65 | 86 | 3.0 | 5.0 | 0.00 | 0.00 | 0.00 | 68 | 1012.7 |
| 20260507095002 | 65 | 114 | 1.0 | 2.0 | 0.00 | 0.00 | 0.00 | 68 | 1012.6 |
| 20260507094503 | 66 | 119 | 0.0 | 3.0 | 0.00 | 0.00 | 0.00 | 68 | 1012.7 |
| 20260507094003 | 66 | 101 | 3.0 | 5.0 | 0.00 | 0.00 | 0.00 | 68 | 1012.7 |
| 20260507093504 | 65 | 0 | 1.0 | 2.0 | 0.00 | 0.00 | 0.00 | 68 | 1012.7 |
| 20260507093004 | 65 | 71 | 1.0 | 3.0 | 0.00 | 0.00 | 0.00 | 71 | 1012.7 |
| 20260507092503 | 65 | 78 | 2.0 | 3.0 | 0.00 | 0.00 | 0.00 | 70 | 1012.5 |
| 20260507092002 | 65 | 111 | 1.0 | 3.0 | 0.00 | 0.00 | 0.00 | 70 | 1012.6 |
| 20260507091504 | 64 | 179 | 2.0 | 2.0 | 0.00 | 0.00 | 0.00 | 72 | 1012.6 |
| 20260507091002 | 64 | 146 | 2.0 | 3.0 | 0.00 | 0.00 | 0.00 | 74 | 1012.6 |
| 20260507090503 | 64 | 84 | 1.0 | 3.0 | 0.00 | 0.00 | 0.00 | 74 | 1012.6 |
| 20260507090002 | 63 | 243 | 2.0 | 2.0 | 0.00 | 0.00 | 0.00 | 76 | 1012.3 |
| 20260507085502 | 63 | 114 | 4.0 | 5.0 | 0.00 | 0.00 | 0.00 | 76 | 1012.5 |
| 20260507085003 | 62 | 49 | 4.0 | 5.0 | 0.00 | 0.00 | 0.00 | 76 | 1012.3 |
| 20260507084502 | 62 | 134 | 1.0 | 6.0 | 0.00 | 0.00 | 0.00 | 77 | 1012.3 |
| 20260507084003 | 62 | 66 | 2.0 | 3.0 | 0.00 | 0.00 | 0.00 | 78 | 1012.1 |
| 20260507083504 | 62 | 187 | 3.0 | 6.0 | 0.00 | 0.00 | 0.00 | 78 | 1012.1 |
| 20260507083005 | 62 | 133 | 3.0 | 8.0 | 0.00 | 0.00 | 0.00 | 79 | 1011.9 |
| 20260507082503 | 62 | 92 | 1.0 | 2.0 | 0.00 | 0.00 | 0.00 | 80 | 1011.9 |
| 20260507082003 | 62 | 113 | 2.0 | 6.0 | 0.00 | 0.00 | 0.00 | 79 | 1011.9 |
| 20260507081503 | 62 | 122 | 3.0 | 3.0 | 0.00 | 0.00 | 0.00 | 79 | 1011.9 |
| 20260507081004 | 62 | 189 | 2.0 | 5.0 | 0.00 | 0.00 | 0.00 | 79 | 1011.9 |
| 20260507080504 | 62 | 112 | 2.0 | 3.0 | 0.00 | 0.00 | 0.00 | 79 | 1011.9 |
| 20260507080005 | 62 | 59 | 3.0 | 6.0 | 0.00 | 0.00 | 0.00 | 78 | 1011.8 |
| 20260507075504 | 62 | 131 | 1.0 | 2.0 | 0.00 | 0.00 | 0.00 | 81 | 1011.9 |
| 20260507075003 | 61 | 65 | 3.0 | 5.0 | 0.00 | 0.00 | 0.00 | 80 | 1011.7 |
| 20260507074504 | 61 | 58 | 2.0 | 2.0 | 0.00 | 0.00 | 0.00 | 81 | 1011.6 |
| 20260507074003 | 61 | 130 | 2.0 | 3.0 | 0.00 | 0.00 | 0.00 | 82 | 1011.5 |
| 20260507073504 | 61 | 138 | 3.0 | 5.0 | 0.00 | 0.00 | 0.00 | 82 | 1011.5 |
| 20260507073002 | 60 | 127 | 0.0 | 5.0 | 0.00 | 0.00 | 0.00 | 83 | 1011.4 |
| 20260507072503 | 61 | 109 | 3.0 | 7.0 | 0.00 | 0.00 | 0.00 | 81 | 1011.3 |
| 20260507072004 | 61 | 112 | 1.0 | 3.0 | 0.00 | 0.00 | 0.00 | 81 | 1011.2 |
| 20260507071504 | 62 | 91 | 4.0 | 5.0 | 0.00 | 0.00 | 0.00 | 80 | 1011.2 |
| 20260507071004 | 61 | 73 | 1.0 | 3.0 | 0.00 | 0.00 | 0.00 | 81 | 1011.1 |
| 20260507070504 | 61 | 65 | 2.0 | 7.0 | 0.00 | 0.00 | 0.00 | 81 | 1011.2 |
| 20260507070008 | 61 | 67 | 1.0 | 5.0 | 0.00 | 0.00 | 0.00 | 80 | 1011.0 |
| 20260507065503 | 62 | 96 | 2.0 | 5.0 | 0.00 | 0.00 | 0.00 | 79 | 1010.9 |
| 20260507065002 | 62 | 161 | 3.0 | 5.0 | 0.00 | 0.00 | 0.00 | 79 | 1010.9 |
| 20260507064504 | 62 | 340 | 3.0 | 6.0 | 0.00 | 0.00 | 0.00 | 78 | 1010.8 |
| 20260507064004 | 62 | 65 | 2.0 | 2.0 | 0.00 | 0.00 | 0.00 | 77 | 1010.6 |
| 20260507063503 | 62 | 71 | 3.0 | 7.0 | 0.00 | 0.00 | 0.00 | 78 | 1010.7 |
| 20260507063003 | 61 | 57 | 2.0 | 3.0 | 0.00 | 0.00 | 0.00 | 79 | 1010.7 |
| 20260507062504 | 61 | 31 | 2.0 | 5.0 | 0.00 | 0.00 | 0.00 | 80 | 1010.6 |
| 20260507062002 | 61 | 75 | 1.0 | 3.0 | 0.00 | 0.00 | 0.00 | 81 | 1010.6 |
| 20260507061505 | 61 | 9 | 1.0 | 6.0 | 0.00 | 0.00 | 0.00 | 81 | 1010.6 |
| 20260507061005 | 61 | 119 | 1.0 | 1.0 | 0.00 | 0.00 | 0.00 | 82 | 1010.2 |
| 20260507060502 | 61 | 137 | 0.0 | 0.0 | 0.00 | 0.00 | 0.00 | 82 | 1010.4 |
| 20260507060003 | 61 | 140 | 1.0 | 1.0 | 0.00 | 0.00 | 0.00 | 83 | 1010.4 |
| 20260507055503 | 61 | 137 | 0.0 | 1.0 | 0.00 | 0.00 | 0.00 | 82 | 1010.3 |
| 20260507055004 | 60 | 143 | 0.0 | 0.0 | 0.00 | 0.00 | 0.00 | 84 | 1010.3 |
| 20260507054504 | 60 | 200 | 0.0 | 1.0 | 0.00 | 0.00 | 0.00 | 85 | 1010.3 |
| 20260507054004 | 59 | 295 | 0.0 | 1.0 | 0.00 | 0.00 | 0.00 | 85 | 1010.1 |
| 20260507053503 | 59 | 272 | 0.0 | 1.0 | 0.00 | 0.00 | 0.00 | 85 | 1010.2 |
| 20260507053003 | 59 | 263 | 0.0 | 0.0 | 0.00 | 0.00 | 0.00 | 86 | 1010.2 |
| 20260507052503 | 59 | 257 | 0.0 | 1.0 | 0.00 | 0.00 | 0.00 | 87 | 1010.0 |
| 20260507052004 | 59 | 234 | 0.0 | 0.0 | 0.00 | 0.00 | 0.00 | 88 | 1010.1 |
| 20260507051504 | 58 | 257 | 0.0 | 1.0 | 0.00 | 0.00 | 0.00 | 89 | 1010.0 |
| 20260507051003 | 58 | 279 | 0.0 | 1.0 | 0.00 | 0.00 | 0.00 | 90 | 1010.0 |
| 20260507050505 | 57 | 248 | 0.0 | 2.0 | 0.00 | 0.00 | 0.00 | 90 | 1010.1 |
| 20260507050004 | 57 | 251 | 0.0 | 2.0 | 0.00 | 0.00 | 0.00 | 90 | 1009.9 |
| 20260507045504 | 57 | 222 | 0.0 | 0.0 | 0.00 | 0.00 | 0.00 | 91 | 1009.8 |
| 20260507045003 | 57 | 222 | 0.0 | 0.0 | 0.00 | 0.00 | 0.00 | 91 | 1010.0 |
| 20260507044502 | 57 | 241 | 0.0 | 1.0 | 0.00 | 0.00 | 0.00 | 91 | 1009.9 |
| 20260507044004 | 57 | 218 | 0.0 | 0.0 | 0.00 | 0.00 | 0.00 | 91 | 1009.9 |
| 20260507043506 | 57 | 218 | 0.0 | 0.0 | 0.00 | 0.00 | 0.00 | 92 | 1009.8 |
| 20260507043005 | 57 | 188 | 1.0 | 1.0 | 0.00 | 0.00 | 0.00 | 91 | 1010.0 |
| 20260507042504 | 57 | 166 | 0.0 | 0.0 | 0.00 | 0.00 | 0.00 | 91 | 1010.0 |
| 20260507042002 | 57 | 215 | 0.0 | 0.0 | 0.00 | 0.00 | 0.00 | 91 | 1009.9 |
| 20260507041504 | 57 | 270 | 0.0 | 0.0 | 0.00 | 0.00 | 0.00 | 91 | 1009.9 |
| 20260507041002 | 57 | 265 | 1.0 | 2.0 | 0.00 | 0.00 | 0.00 | 90 | 1009.7 |
| 20260507040504 | 57 | 239 | 0.0 | 0.0 | 0.00 | 0.00 | 0.00 | 90 | 1009.9 |
| 20260507040003 | 57 | 242 | 0.0 | 0.0 | 0.00 | 0.00 | 0.00 | 90 | 1009.9 |
| 20260507035504 | 57 | 221 | 0.0 | 0.0 | 0.00 | 0.00 | 0.00 | 90 | 1009.7 |
| 20260507035003 | 57 | 221 | 1.0 | 1.0 | 0.00 | 0.00 | 0.00 | 90 | 1009.5 |
| 20260507034503 | 57 | 217 | 0.0 | 0.0 | 0.00 | 0.00 | 0.00 | 90 | 1009.5 |
| 20260507034006 | 57 | 217 | 0.0 | 0.0 | 0.00 | 0.00 | 0.00 | 90 | 1009.5 |
| 20260507033005 | 57 | 156 | 0.0 | 0.0 | 0.00 | 0.00 | 0.00 | 90 | 1009.5 |
| 20260507032505 | 57 | 152 | 1.0 | 2.0 | 0.00 | 0.00 | 0.00 | 90 | 1009.5 |
| 20260507032003 | 57 | 93 | 1.0 | 2.0 | 0.00 | 0.00 | 0.00 | 91 | 1009.3 |
| 20260507031503 | 57 | 332 | 0.0 | 0.0 | 0.00 | 0.00 | 0.00 | 88 | 1009.3 |
| 20260507031003 | 57 | 284 | 0.0 | 0.0 | 0.00 | 0.00 | 0.00 | 88 | 1009.2 |
| 20260507030505 | 57 | 327 | 0.0 | 0.0 | 0.00 | 0.00 | 0.00 | 88 | 1009.1 |
| 20260507030004 | 57 | 273 | 0.0 | 0.0 | 0.00 | 0.00 | 0.00 | 88 | 1009.1 |
| 20260507025504 | 57 | 273 | 1.0 | 1.0 | 0.00 | 0.00 | 0.00 | 88 | 1009.2 |
| 20260507025005 | 57 | 272 | 0.0 | 1.0 | 0.00 | 0.00 | 0.00 | 88 | 1009.0 |
| 20260507024505 | 57 | 272 | 0.0 | 0.0 | 0.00 | 0.00 | 0.00 | 88 | 1009.0 |
| 20260507024004 | 57 | 278 | 0.0 | 0.0 | 0.00 | 0.00 | 0.00 | 88 | 1009.2 |
| 20260507023003 | 57 | 279 | 0.0 | 1.0 | 0.00 | 0.00 | 0.00 | 88 | 1009.1 |
| 20260507022504 | 57 | 267 | 0.0 | 1.0 | 0.00 | 0.00 | 0.00 | 88 | 1009.0 |
| 20260507022004 | 57 | 267 | 0.0 | 0.0 | 0.00 | 0.00 | 0.00 | 88 | 1009.1 |
| 20260507021502 | 57 | 267 | 0.0 | 0.0 | 0.00 | 0.00 | 0.00 | 87 | 1009.0 |
| 20260507021002 | 57 | 267 | 0.0 | 0.0 | 0.00 | 0.00 | 0.00 | 87 | 1009.2 |
| 20260507020505 | 57 | 231 | 0.0 | 0.0 | 0.00 | 0.00 | 0.00 | 87 | 1009.1 |
| 20260507020007 | 57 | 231 | 0.0 | 0.0 | 0.00 | 0.00 | 0.00 | 87 | 1009.1 |
| 20260507015504 | 57 | 187 | 0.0 | 0.0 | 0.00 | 0.00 | 0.00 | 87 | 1009.1 |
| 20260507015003 | 58 | 194 | 0.0 | 1.0 | 0.00 | 0.00 | 0.00 | 86 | 1008.9 |
| 20260507014504 | 58 | 263 | 0.0 | 0.0 | 0.00 | 0.00 | 0.00 | 86 | 1008.9 |
| 20260507014003 | 58 | 290 | 1.0 | 3.0 | 0.00 | 0.00 | 0.00 | 86 | 1008.9 |
| 20260507013502 | 57 | 314 | 1.0 | 2.0 | 0.00 | 0.00 | 0.00 | 86 | 1008.9 |
| 20260507013003 | 57 | 237 | 0.0 | 0.0 | 0.00 | 0.00 | 0.00 | 86 | 1009.0 |
| 20260507012502 | 58 | 127 | 2.0 | 2.0 | 0.00 | 0.00 | 0.00 | 86 | 1009.4 |
| 20260507012003 | 57 | 304 | 0.0 | 1.0 | 0.00 | 0.00 | 0.00 | 87 | 1009.1 |
| 20260507011503 | 57 | 183 | 0.0 | 0.0 | 0.00 | 0.00 | 0.00 | 87 | 1009.1 |
| 20260507011002 | 57 | 246 | 0.0 | 1.0 | 0.00 | 0.00 | 0.00 | 87 | 1009.1 |
| 20260507010503 | 57 | 25 | 1.0 | 1.0 | 0.00 | 0.00 | 0.00 | 88 | 1008.9 |
| 20260507010004 | 57 | 251 | 0.0 | 1.0 | 0.00 | 0.00 | 0.00 | 88 | 1008.9 |
| 20260507005505 | 57 | 282 | 0.0 | 1.0 | 0.00 | 0.00 | 0.00 | 87 | 1008.9 |
| 20260507005003 | 57 | 285 | 0.0 | 0.0 | 0.00 | 0.00 | 0.00 | 87 | 1008.8 |
| 20260507004502 | 57 | 280 | 0.0 | 0.0 | 0.00 | 0.00 | 0.00 | 87 | 1009.0 |
| 20260507004003 | 57 | 310 | 1.0 | 1.0 | 0.00 | 0.00 | 0.00 | 86 | 1008.9 |
| 20260507003504 | 57 | 257 | 0.0 | 1.0 | 0.00 | 0.00 | 0.00 | 86 | 1009.0 |
| 20260507003004 | 58 | 228 | 0.0 | 2.0 | 0.00 | 0.00 | 0.00 | 86 | 1009.1 |
| 20260507002504 | 58 | 224 | 0.0 | 0.0 | 0.00 | 0.00 | 0.00 | 86 | 1009.2 |
| 20260507002005 | 58 | 184 | 0.0 | 0.0 | 0.00 | 0.00 | 0.00 | 86 | 1009.1 |
| 20260507001503 | 58 | 231 | 0.0 | 1.0 | 0.00 | 0.00 | 0.00 | 86 | 1009.2 |
| 20260507001003 | 58 | 194 | 0.0 | 2.0 | 0.00 | 0.00 | 0.00 | 86 | 1009.3 |
| 20260507000510 | 58 | 237 | 1.0 | 2.0 | 0.00 | 0.00 | 0.00 | 86 | 1009.1 |
| 20260507000005 | 58 | 220 | 0.0 | 1.0 | 0.00 | 0.00 | 0.00 | 86 | 1009.3 |
| 20260506235504 | 58 | 161 | 0.0 | 1.0 | 0.00 | 0.00 | 0.00 | 86 | 1009.2 |
| 20260506235003 | 58 | 272 | 2.0 | 2.0 | 0.00 | 0.00 | 0.00 | 86 | 1009.3 |
| 20260506234502 | 58 | 208 | 0.0 | 0.0 | 0.00 | 0.00 | 0.00 | 86 | 1009.2 |
| 20260506234003 | 58 | 139 | 0.0 | 0.0 | 0.00 | 0.00 | 0.00 | 86 | 1009.2 |
| 20260506233503 | 58 | 180 | 1.0 | 2.0 | 0.00 | 0.00 | 0.00 | 86 | 1009.1 |
| 20260506233005 | 58 | 208 | 2.0 | 3.0 | 0.00 | 0.00 | 0.00 | 87 | 1009.2 |
| 20260506232503 | 59 | 233 | 1.0 | 2.0 | 0.00 | 0.00 | 0.00 | 87 | 1009.1 |
| 20260506232002 | 59 | 138 | 1.0 | 3.0 | 0.00 | 0.00 | 0.00 | 86 | 1009.1 |
| 20260506231503 | 59 | 226 | 4.0 | 7.0 | 0.00 | 0.00 | 0.00 | 85 | 1009.2 |
| 20260506231003 | 59 | 206 | 3.0 | 3.0 | 0.00 | 0.00 | 0.00 | 84 | 1009.1 |
| 20260506230506 | 59 | 131 | 2.0 | 3.0 | 0.00 | 0.00 | 0.00 | 82 | 1009.4 |
| 20260506230002 | 59 | 92 | 3.0 | 6.0 | 0.00 | 0.00 | 0.00 | 81 | 1009.2 |
| 20260506225503 | 59 | 131 | 0.0 | 2.0 | 0.00 | 0.00 | 0.00 | 80 | 1009.3 |
| 20260506225005 | 60 | 118 | 0.0 | 1.0 | 0.00 | 0.00 | 0.00 | 79 | 1009.0 |
| 20260506224503 | 60 | 209 | 0.0 | 2.0 | 0.00 | 0.00 | 0.00 | 79 | 1009.0 |
| 20260506224002 | 60 | 146 | 0.0 | 3.0 | 0.00 | 0.00 | 0.00 | 78 | 1009.0 |
| 20260506223504 | 60 | 113 | 1.0 | 2.0 | 0.00 | 0.00 | 0.00 | 77 | 1008.8 |
| 20260506223003 | 60 | 234 | 2.0 | 2.0 | 0.00 | 0.00 | 0.00 | 76 | 1008.9 |
| 20260506222503 | 61 | 187 | 1.0 | 2.0 | 0.00 | 0.00 | 0.00 | 74 | 1008.9 |
| 20260506222003 | 61 | 127 | 1.0 | 2.0 | 0.00 | 0.00 | 0.00 | 73 | 1008.9 |
| 20260506221504 | 62 | 136 | 0.0 | 3.0 | 0.00 | 0.00 | 0.00 | 72 | 1008.8 |
| 20260506221002 | 62 | 99 | 2.0 | 3.0 | 0.00 | 0.00 | 0.00 | 69 | 1008.7 |
| 20260506220005 | 62 | 26 | 1.0 | 1.0 | 0.00 | 0.00 | 0.00 | 67 | 1008.5 |
| 20260506215504 | 62 | 95 | 1.0 | 1.0 | 0.00 | 0.00 | 0.00 | 67 | 1008.4 |
| 20260506215003 | 62 | 160 | 0.0 | 1.0 | 0.00 | 0.00 | 0.00 | 67 | 1008.5 |
| 20260506214503 | 64 | 135 | 1.0 | 2.0 | 0.00 | 0.00 | 0.00 | 66 | 1008.6 |
| 20260506214003 | 64 | 327 | 0.0 | 2.0 | 0.00 | 0.00 | 0.00 | 61 | 1008.3 |
| 20260506213504 | 64 | 345 | 0.0 | 1.0 | 0.00 | 0.00 | 0.00 | 61 | 1008.3 |
| 20260506213004 | 64 | 302 | 0.0 | 1.0 | 0.00 | 0.00 | 0.00 | 61 | 1008.2 |
| 20260506212502 | 65 | 332 | 0.0 | 1.0 | 0.00 | 0.00 | 0.00 | 61 | 1008.4 |
| 20260506212003 | 65 | 321 | 0.0 | 0.0 | 0.00 | 0.00 | 0.00 | 60 | 1008.2 |
| 20260506211504 | 65 | 333 | 0.0 | 1.0 | 0.00 | 0.00 | 0.00 | 60 | 1008.2 |
| 20260506211002 | 65 | 300 | 0.0 | 0.0 | 0.00 | 0.00 | 0.00 | 60 | 1008.2 |
| 20260506210503 | 66 | 323 | 0.0 | 1.0 | 0.00 | 0.00 | 0.00 | 59 | 1008.2 |
| 20260506210003 | 65 | 336 | 1.0 | 2.0 | 0.00 | 0.00 | 0.00 | 59 | 1008.3 |
| 20260506205502 | 65 | 333 | 1.0 | 2.0 | 0.00 | 0.00 | 0.00 | 59 | 1008.2 |
| 20260506205002 | 64 | 336 | 0.0 | 1.0 | 0.00 | 0.00 | 0.00 | 61 | 1008.2 |
| 20260506204503 | 64 | 353 | 0.0 | 1.0 | 0.00 | 0.00 | 0.00 | 62 | 1008.2 |
| 20260506204004 | 64 | 15 | 0.0 | 1.0 | 0.00 | 0.00 | 0.00 | 63 | 1008.4 |
| 20260506203504 | 63 | 340 | 0.0 | 0.0 | 0.00 | 0.00 | 0.00 | 65 | 1008.4 |
| 20260506203002 | 63 | 340 | 0.0 | 1.0 | 0.00 | 0.00 | 0.00 | 65 | 1008.2 |
| 20260506202503 | 61 | 340 | 0.0 | 0.0 | 0.00 | 0.00 | 0.00 | 70 | 1008.1 |
| 20260506202004 | 61 | 340 | 0.0 | 0.0 | 0.00 | 0.00 | 0.00 | 71 | 1008.3 |
| 20260506201504 | 60 | 340 | 0.0 | 0.0 | 0.00 | 0.00 | 0.00 | 72 | 1008.3 |
| 20260506201004 | 60 | 12 | 0.0 | 0.0 | 0.00 | 0.00 | 0.00 | 75 | 1008.2 |
| 20260506200504 | 60 | 12 | 0.0 | 0.0 | 0.00 | 0.00 | 0.00 | 76 | 1008.3 |
| 20260506200002 | 60 | 12 | 0.0 | 0.0 | 0.00 | 0.00 | 0.00 | 76 | 1008.2 |
| 20260506195504 | 60 | 12 | 0.0 | 0.0 | 0.00 | 0.00 | 0.00 | 75 | 1008.3 |
| 20260506195003 | 60 | 12 | 0.0 | 0.0 | 0.00 | 0.00 | 0.00 | 74 | 1008.1 |
| 20260506194502 | 60 | 12 | 0.0 | 0.0 | 0.00 | 0.00 | 0.00 | 73 | 1008.3 |
| 20260506194002 | 61 | 12 | 0.0 | 0.0 | 0.00 | 0.00 | 0.00 | 71 | 1008.3 |
| 20260506193503 | 61 | 12 | 0.0 | 0.0 | 0.00 | 0.00 | 0.00 | 71 | 1008.0 |
| 20260506193002 | 61 | 12 | 0.0 | 0.0 | 0.00 | 0.00 | 0.00 | 71 | 1008.1 |
| 20260506192504 | 61 | 12 | 0.0 | 0.0 | 0.00 | 0.00 | 0.00 | 68 | 1008.2 |
| 20260506192003 | 61 | 13 | 0.0 | 0.0 | 0.00 | 0.00 | 0.00 | 69 | 1008.1 |
| 20260506191504 | 62 | 13 | 0.0 | 0.0 | 0.00 | 0.00 | 0.00 | 69 | 1008.1 |
| 20260506191003 | 62 | 13 | 0.0 | 0.0 | 0.00 | 0.00 | 0.00 | 67 | 1008.1 |
| 20260506190504 | 63 | 13 | 0.0 | 0.0 | 0.00 | 0.00 | 0.00 | 66 | 1008.3 |
| 20260506190002 | 63 | 13 | 0.0 | 0.0 | 0.00 | 0.00 | 0.00 | 65 | 1007.8 |
| 20260506185504 | 64 | 13 | 0.0 | 0.0 | 0.00 | 0.00 | 0.00 | 63 | 1007.9 |
| 20260506185003 | 64 | 13 | 0.0 | 0.0 | 0.00 | 0.00 | 0.00 | 64 | 1008.0 |
| 20260506184503 | 65 | 13 | 0.0 | 0.0 | 0.00 | 0.00 | 0.00 | 62 | 1008.0 |
| 20260506184003 | 65 | 13 | 0.0 | 0.0 | 0.00 | 0.00 | 0.00 | 61 | 1007.8 |
| 20260506183504 | 65 | 13 | 0.0 | 1.0 | 0.00 | 0.00 | 0.00 | 59 | 1007.8 |
| 20260506183005 | 65 | 14 | 0.0 | 1.0 | 0.00 | 0.00 | 0.00 | 60 | 1008.0 |
| 20260506182503 | 65 | 33 | 0.0 | 0.0 | 0.00 | 0.00 | 0.00 | 61 | 1007.9 |
| 20260506182005 | 66 | 33 | 0.0 | 0.0 | 0.00 | 0.00 | 0.00 | 60 | 1007.7 |
| 20260506181504 | 66 | 33 | 0.0 | 0.0 | 0.00 | 0.00 | 0.00 | 59 | 1007.6 |
| 20260506181004 | 66 | 33 | 0.0 | 0.0 | 0.00 | 0.00 | 0.00 | 58 | 1007.7 |
| 20260506180502 | 67 | 33 | 0.0 | 0.0 | 0.00 | 0.00 | 0.00 | 56 | 1007.7 |